Time;durP1;ratioP1;P1;durP2;ratioP2;P2;SDS_P1;SDS_P2;PMS_P1;PMS_P2;Temp;Humidity;BMP_temperature;BMP_pressure;BME280_temperature;BME280_humidity;BME280_pressure;Samples;Min_cycle;Max_cycle;Signal;HPM_P1;HPM_P2
2024/04/17 00:00:51;;;;;;;1.42;1.13;;;7.20;78.00;;;;;;6374507;22;20297;-90
2024/04/17 00:03:21;;;;;;;1.00;0.65;;;7.20;77.50;;;;;;6329607;22;20226;-89
2024/04/17 00:05:47;;;;;;;1.70;0.90;;;7.20;78.10;;;;;;6373710;22;20241;-90
2024/04/17 00:08:18;;;;;;;1.13;0.85;;;7.30;77.80;;;;;;6373076;22;20264;-90
2024/04/17 00:10:44;;;;;;;1.30;1.00;;;7.20;77.70;;;;;;6331086;22;20230;-90
2024/04/17 00:13:13;;;;;;;0.77;0.77;;;7.20;77.10;;;;;;6373539;22;20355;-89
2024/04/17 00:15:39;;;;;;;1.10;1.00;;;7.20;76.50;;;;;;6374668;22;20242;-87
2024/04/17 00:18:08;;;;;;;1.13;1.00;;;7.20;76.60;;;;;;6373959;22;20260;-90
2024/04/17 00:20:33;;;;;;;1.10;0.80;;;7.20;76.60;;;;;;6371838;22;20268;-89
2024/04/17 00:23:02;;;;;;;0.95;0.93;;;7.10;77.00;;;;;;6331369;22;20965;-90
2024/04/17 00:25:30;;;;;;;0.55;0.50;;;7.20;76.70;;;;;;6375344;22;20296;-90
2024/04/17 00:27:59;;;;;;;1.30;1.10;;;7.20;77.50;;;;;;6332519;22;20260;-90
2024/04/17 00:30:25;;;;;;;0.80;0.80;;;7.20;76.60;;;;;;6375795;22;20353;-89
2024/04/17 00:32:54;;;;;;;1.37;1.00;;;7.20;76.80;;;;;;6374417;22;20676;-90
2024/04/17 00:35:20;;;;;;;1.30;1.00;;;7.20;77.20;;;;;;6375136;22;21158;-89
2024/04/17 00:37:48;;;;;;;2.47;1.00;;;7.20;77.80;;;;;;6374643;22;20325;-90
2024/04/17 00:40:14;;;;;;;0.98;0.93;;;7.20;77.50;;;;;;6374782;22;20693;-90
2024/04/17 00:42:46;;;;;;;1.10;1.00;;;7.10;77.00;;;;;;6375481;22;20313;-90
2024/04/17 00:45:11;;;;;;;1.13;1.00;;;7.10;76.80;;;;;;6374951;22;20289;-87
2024/04/17 00:47:40;;;;;;;1.27;0.80;;;7.20;78.10;;;;;;6331804;22;20332;-89
2024/04/17 00:50:08;;;;;;;1.43;1.00;;;7.10;78.10;;;;;;6332286;22;20551;-90
2024/04/17 00:52:38;;;;;;;1.60;1.27;;;7.10;78.50;;;;;;6373221;22;20679;-88
2024/04/17 00:55:04;;;;;;;0.83;0.83;;;7.10;78.60;;;;;;6375640;22;20221;-87
2024/04/17 00:57:36;;;;;;;0.80;0.80;;;7.10;79.70;;;;;;6375836;22;20321;-88
2024/04/17 01:00:06;;;;;;;2.37;1.03;;;7.00;79.40;;;;;;6375930;22;20535;-90
2024/04/17 01:02:34;;;;;;;1.00;0.90;;;7.00;79.80;;;;;;6375195;22;20229;-90
2024/04/17 01:05:00;;;;;;;0.70;0.70;;;7.00;80.20;;;;;;6376330;22;20392;-88
2024/04/17 01:07:29;;;;;;;0.88;0.88;;;6.90;81.20;;;;;;6374646;22;20253;-90
2024/04/17 01:09:55;;;;;;;1.15;1.05;;;6.90;82.50;;;;;;6333044;22;20225;-90
2024/04/17 01:12:23;;;;;;;0.80;0.80;;;6.90;81.70;;;;;;6375896;22;20290;-90
2024/04/17 01:14:49;;;;;;;0.70;0.70;;;6.90;82.50;;;;;;6345479;22;20225;-90
2024/04/17 01:17:21;;;;;;;1.15;0.90;;;6.90;82.60;;;;;;6375717;22;20229;-90
2024/04/17 01:19:47;;;;;;;1.40;0.88;;;6.90;82.50;;;;;;6374590;22;20665;-90
2024/04/17 01:22:15;;;;;;;1.95;0.90;;;7.00;82.50;;;;;;6374737;22;20324;-89
2024/04/17 01:24:44;;;;;;;0.87;0.87;;;7.00;81.10;;;;;;6374442;22;20350;-90
2024/04/17 01:27:13;;;;;;;1.10;0.80;;;7.00;81.10;;;;;;6292299;22;20269;-87
2024/04/17 01:29:38;;;;;;;1.10;0.80;;;6.90;80.70;;;;;;6375224;22;20362;-87
2024/04/17 01:32:07;;;;;;;5.03;1.00;;;7.00;81.10;;;;;;6373873;22;20732;-87
2024/04/17 01:34:33;;;;;;;1.13;1.00;;;6.90;81.40;;;;;;6375257;22;20305;-87
2024/04/17 01:37:02;;;;;;;0.70;0.70;;;6.90;81.30;;;;;;6331785;22;20237;-88
2024/04/17 01:39:27;;;;;;;1.00;0.90;;;6.80;80.90;;;;;;6374898;22;20341;-87
2024/04/17 01:41:59;;;;;;;2.30;1.00;;;6.80;81.10;;;;;;6372724;22;20237;-87
2024/04/17 01:44:25;;;;;;;0.93;0.80;;;6.80;81.80;;;;;;6375384;22;20981;-87
2024/04/17 01:46:54;;;;;;;1.20;1.00;;;6.80;81.10;;;;;;6374437;22;20294;-87
2024/04/17 01:49:20;;;;;;;1.50;0.97;;;6.80;81.80;;;;;;6375402;22;20237;-87
2024/04/17 01:51:48;;;;;;;0.80;0.80;;;6.80;82.60;;;;;;6374141;22;20969;-90
2024/04/17 01:54:14;;;;;;;0.80;0.80;;;6.90;81.30;;;;;;6375475;22;20345;-90
2024/04/17 01:56:43;;;;;;;2.83;1.13;;;7.00;80.60;;;;;;6373808;22;20237;-90
2024/04/17 01:59:11;;;;;;;1.60;1.00;;;7.00;81.10;;;;;;6375687;22;20226;-89
2024/04/17 02:01:40;;;;;;;0.98;0.95;;;7.00;82.70;;;;;;6376653;22;20263;-89
2024/04/17 02:04:05;;;;;;;0.97;0.90;;;6.90;82.70;;;;;;6375538;22;20289;-90
2024/04/17 02:06:34;;;;;;;1.10;1.00;;;6.80;82.80;;;;;;6374311;22;20229;-90
2024/04/17 02:09:00;;;;;;;1.03;0.90;;;6.80;83.40;;;;;;6374874;22;21519;-90
2024/04/17 02:11:29;;;;;;;1.67;1.00;;;6.80;84.50;;;;;;6290899;22;20302;-89
2024/04/17 02:13:54;;;;;;;1.65;1.15;;;6.80;84.50;;;;;;6374761;22;20218;-89
2024/04/17 02:16:26;;;;;;;3.00;0.90;;;6.80;84.40;;;;;;6373662;22;20706;-89
2024/04/17 02:18:52;;;;;;;1.17;1.07;;;6.90;84.00;;;;;;6373654;22;20234;-89
2024/04/17 02:21:20;;;;;;;1.02;1.02;;;6.90;83.70;;;;;;6373322;22;20657;-90
2024/04/17 02:23:46;;;;;;;1.03;0.90;;;6.90;83.40;;;;;;6331860;22;20704;-90
2024/04/17 02:26:15;;;;;;;1.98;1.05;;;6.80;83.10;;;;;;6373840;22;20272;-90
2024/04/17 02:28:41;;;;;;;2.33;1.10;;;6.80;84.10;;;;;;6374658;22;20298;-89
2024/04/17 02:31:10;;;;;;;1.85;1.30;;;6.80;82.00;;;;;;6373940;22;20644;-89
2024/04/17 02:33:38;;;;;;;2.07;1.03;;;6.80;82.20;;;;;;6374812;22;20281;-89
2024/04/17 02:36:08;;;;;;;0.90;0.90;;;6.80;82.80;;;;;;6374647;22;20756;-89
2024/04/17 02:38:34;;;;;;;0.90;0.90;;;6.80;83.30;;;;;;6374405;22;20301;-89
2024/04/17 02:41:02;;;;;;;1.17;1.10;;;6.80;84.30;;;;;;6370460;22;20245;-90
2024/04/17 02:43:28;;;;;;;0.90;0.90;;;6.80;83.60;;;;;;6373860;22;20346;-89
2024/04/17 02:45:57;;;;;;;1.53;1.00;;;6.80;84.80;;;;;;6374412;22;20237;-89
2024/04/17 02:48:23;;;;;;;1.20;1.10;;;6.80;86.40;;;;;;6374295;22;20234;-89
2024/04/17 02:50:55;;;;;;;0.90;0.90;;;6.70;89.00;;;;;;6374153;22;20795;-89
2024/04/17 02:53:20;;;;;;;1.23;1.20;;;6.60;90.00;;;;;;6373635;22;20222;-90
2024/04/17 02:55:49;;;;;;;1.48;0.90;;;6.50;91.10;;;;;;6375712;22;20654;-90
2024/04/17 02:58:15;;;;;;;1.00;1.00;;;6.40;91.70;;;;;;6374942;22;20281;-90
2024/04/17 03:00:43;;;;;;;2.25;1.25;;;6.40;93.40;;;;;;6375731;22;20332;-90
2024/04/17 03:03:09;;;;;;;2.13;1.08;;;6.10;93.60;;;;;;6372993;22;20266;-91
2024/04/17 03:05:38;;;;;;;1.30;1.20;;;6.00;95.30;;;;;;6334657;22;20258;-92
2024/04/17 03:08:07;;;;;;;1.23;1.13;;;6.00;94.60;;;;;;6381154;22;20245;-92
2024/04/17 03:10:35;;;;;;;1.10;1.00;;;5.90;95.30;;;;;;6339461;22;20743;-90
2024/04/17 03:13:01;;;;;;;1.10;1.10;;;5.60;95.20;;;;;;6389441;22;20358;-90
2024/04/17 03:15:30;;;;;;;0.90;0.90;;;5.30;95.30;;;;;;6385830;22;20229;-90
2024/04/17 03:17:56;;;;;;;1.10;1.10;;;5.30;96.70;;;;;;6383480;22;20403;-90
2024/04/17 03:20:24;;;;;;;1.17;1.07;;;5.40;96.30;;;;;;6385207;22;20227;-89
2024/04/17 03:22:50;;;;;;;1.00;1.00;;;5.20;96.60;;;;;;6382240;22;20276;-89
2024/04/17 03:25:22;;;;;;;0.90;0.90;;;5.20;97.10;;;;;;6377799;22;20233;-89
2024/04/17 03:27:47;;;;;;;1.30;0.93;;;5.30;97.30;;;;;;6377512;22;20277;-89
2024/04/17 03:30:16;;;;;;;0.90;0.90;;;5.30;97.00;;;;;;6333594;22;20238;-89
2024/04/17 03:32:42;;;;;;;1.13;0.93;;;5.20;96.90;;;;;;6377026;22;20268;-92
2024/04/17 03:35:11;;;;;;;1.13;1.13;;;5.00;97.00;;;;;;6375564;22;20229;-91
2024/04/17 03:37:40;;;;;;;0.90;0.90;;;4.80;97.60;;;;;;6332411;22;20279;-91
2024/04/17 03:40:10;;;;;;;1.00;1.00;;;4.70;98.00;;;;;;6376081;22;20230;-90
2024/04/17 03:42:41;;;;;;;1.17;1.10;;;4.70;98.20;;;;;;6376302;22;20662;-89
2024/04/17 03:45:09;;;;;;;2.10;1.10;;;4.70;97.80;;;;;;6377288;22;20229;-89
2024/04/17 03:47:40;;;;;;;1.20;1.20;;;4.70;98.30;;;;;;6378383;22;20281;-90
2024/04/17 03:50:08;;;;;;;1.40;1.30;;;4.70;98.70;;;;;;6380038;22;20284;-92
2024/04/17 03:52:34;;;;;;;1.93;1.30;;;4.70;99.10;;;;;;6390259;22;20261;-93
2024/04/17 03:55:03;;;;;;;1.50;1.40;;;4.70;98.50;;;;;;6342382;22;21111;-90
2024/04/17 03:57:30;;;;;;;1.63;1.53;;;4.60;99.10;;;;;;6344594;22;20234;-93
2024/04/17 04:00:01;;;;;;;1.20;1.20;;;4.70;99.10;;;;;;6387805;22;20269;-92
2024/04/17 04:02:27;;;;;;;1.57;1.47;;;4.80;99.10;;;;;;6387909;22;20323;-92
2024/04/17 04:04:55;;;;;;;1.83;1.30;;;4.80;98.40;;;;;;6389552;22;20233;-92
2024/04/17 04:07:21;;;;;;;2.60;1.30;;;4.80;99.10;;;;;;6385912;22;20309;-92
2024/04/17 04:09:50;;;;;;;0.97;0.90;;;4.80;98.90;;;;;;6385968;22;20237;-91
2024/04/17 04:12:15;;;;;;;1.07;1.07;;;4.90;98.20;;;;;;6384258;22;20281;-91
2024/04/17 04:14:44;;;;;;;1.00;1.00;;;4.80;98.40;;;;;;6383193;22;20226;-91
2024/04/17 04:17:13;;;;;;;1.13;1.07;;;4.80;98.50;;;;;;6382196;22;20334;-90
2024/04/17 04:19:41;;;;;;;1.10;1.00;;;4.70;98.50;;;;;;6380534;22;20390;-90
2024/04/17 04:22:07;;;;;;;1.43;1.30;;;4.60;98.70;;;;;;6381691;22;20676;-92
2024/04/17 04:24:36;;;;;;;2.00;1.33;;;4.60;99.10;;;;;;6380766;22;20305;-89
2024/04/17 04:27:02;;;;;;;1.47;1.37;;;4.60;99.30;;;;;;6338500;22;20728;-91
2024/04/17 04:29:30;;;;;;;1.97;1.77;;;4.60;98.80;;;;;;6381641;22;20233;-91
2024/04/17 04:31:56;;;;;;;2.20;1.97;;;4.40;98.70;;;;;;6380272;22;20292;-91
2024/04/17 04:34:27;;;;;;;1.80;1.70;;;4.30;98.80;;;;;;6337085;22;20328;-91
2024/04/17 04:36:56;;;;;;;1.97;1.77;;;4.30;99.30;;;;;;6381149;22;20287;-91
2024/04/17 04:39:22;;;;;;;1.93;1.83;;;4.20;98.80;;;;;;6379971;22;20358;-91
2024/04/17 04:41:50;;;;;;;2.00;1.80;;;4.20;98.30;;;;;;6378703;22;20242;-91
2024/04/17 04:44:16;;;;;;;2.00;1.73;;;4.00;98.40;;;;;;6377568;22;20783;-90
2024/04/17 04:46:45;;;;;;;3.30;1.90;;;3.80;98.60;;;;;;6376965;22;20221;-88
2024/04/17 04:49:11;;;;;;;1.90;1.80;;;3.70;98.90;;;;;;6376034;22;20824;-91
2024/04/17 04:51:42;;;;;;;1.80;1.70;;;3.90;98.90;;;;;;6376080;22;20245;-88
2024/04/17 04:54:08;;;;;;;1.83;1.70;;;3.80;98.40;;;;;;6378171;22;20301;-88
2024/04/17 04:56:37;;;;;;;1.87;1.67;;;3.70;98.80;;;;;;6375006;22;20268;-88
2024/04/17 04:59:02;;;;;;;2.10;1.90;;;3.60;99.00;;;;;;6363243;22;20325;-89
2024/04/17 05:01:31;;;;;;;2.30;1.80;;;3.60;99.80;;;;;;6373766;22;20225;-89
2024/04/17 05:03:57;;;;;;;2.17;2.00;;;3.60;99.30;;;;;;6374938;22;20231;-89
2024/04/17 05:06:26;;;;;;;2.77;2.30;;;3.40;99.10;;;;;;6379888;22;20571;-91
2024/04/17 05:08:54;;;;;;;2.10;1.90;;;3.30;99.20;;;;;;6371916;22;20230;-89
2024/04/17 05:11:23;;;;;;;2.37;2.17;;;3.20;99.50;;;;;;6371870;22;20305;-90
2024/04/17 05:13:49;;;;;;;2.53;2.33;;;3.30;99.90;;;;;;6367726;22;20314;-88
2024/04/17 05:16:17;;;;;;;2.30;2.10;;;3.30;99.90;;;;;;6366767;22;20657;-86
2024/04/17 05:18:43;;;;;;;2.47;2.27;;;3.30;99.90;;;;;;6366737;22;20371;-84
2024/04/17 05:21:13;;;;;;;2.80;2.50;;;3.20;99.40;;;;;;6369180;22;20237;-83
2024/04/17 05:23:41;;;;;;;2.40;2.20;;;3.10;99.30;;;;;;6372076;22;20320;-83
2024/04/17 05:26:10;;;;;;;2.40;2.20;;;3.10;99.20;;;;;;6373781;22;20700;-82
2024/04/17 05:28:39;;;;;;;2.77;2.40;;;3.10;99.50;;;;;;6325235;22;20293;-87
2024/04/17 05:31:04;;;;;;;2.70;2.50;;;3.00;99.40;;;;;;6368000;22;20226;-85
2024/04/17 05:33:33;;;;;;;2.60;2.20;;;3.00;99.50;;;;;;6365990;22;20260;-85
2024/04/17 05:35:59;;;;;;;2.27;2.10;;;3.00;99.60;;;;;;6369249;22;20281;-86
2024/04/17 05:38:27;;;;;;;2.30;2.10;;;2.90;99.30;;;;;;6367455;22;20225;-87
2024/04/17 05:40:53;;;;;;;2.80;2.60;;;2.90;99.40;;;;;;6369141;22;20229;-86
2024/04/17 05:43:25;;;;;;;2.20;2.00;;;2.90;99.60;;;;;;6369768;22;20218;-86
2024/04/17 05:45:51;;;;;;;2.83;2.30;;;2.90;99.80;;;;;;6373014;22;20237;-88
2024/04/17 05:48:20;;;;;;;2.40;2.20;;;2.90;99.80;;;;;;6368902;22;20297;-85
2024/04/17 05:50:46;;;;;;;2.53;2.33;;;3.00;99.80;;;;;;6372814;22;20277;-86
2024/04/17 05:53:14;;;;;;;2.60;2.37;;;3.00;99.80;;;;;;6371890;22;20329;-87
2024/04/17 05:55:40;;;;;;;2.73;2.53;;;3.10;99.80;;;;;;6376551;22;20269;-87
2024/04/17 05:58:09;;;;;;;3.37;2.60;;;3.20;99.90;;;;;;6376137;22;20696;-87
2024/04/17 06:00:38;;;;;;;2.90;2.60;;;3.20;99.90;;;;;;6375067;22;20708;-87
2024/04/17 06:03:07;;;;;;;2.50;2.30;;;3.30;99.80;;;;;;6375401;22;20268;-88
2024/04/17 06:05:33;;;;;;;2.97;2.60;;;3.30;99.40;;;;;;6332771;22;20268;-86
2024/04/17 06:08:02;;;;;;;3.20;2.50;;;3.30;99.30;;;;;;6372600;22;20546;-88
2024/04/17 06:10:28;;;;;;;2.40;2.20;;;3.30;99.50;;;;;;6374808;22;20281;-90
2024/04/17 06:12:56;;;;;;;2.63;2.43;;;3.30;99.80;;;;;;6330695;22;20218;-90
2024/04/17 06:15:22;;;;;;;2.50;2.30;;;3.50;99.90;;;;;;6374496;22;20241;-88
2024/04/17 06:17:55;;;;;;;2.47;2.27;;;3.60;99.90;;;;;;6331421;22;20787;-88
2024/04/17 06:20:21;;;;;;;2.70;2.50;;;3.60;99.90;;;;;;6331668;22;20237;-87
2024/04/17 06:22:50;;;;;;;2.47;2.27;;;3.70;99.90;;;;;;6373278;22;20221;-87
2024/04/17 06:25:16;;;;;;;4.73;2.60;;;3.80;99.90;;;;;;6373671;22;20284;-87
2024/04/17 06:27:44;;;;;;;3.07;2.77;;;3.90;99.50;;;;;;6372574;22;20229;-88
2024/04/17 06:30:10;;;;;;;3.93;2.30;;;4.00;99.70;;;;;;6379103;22;20261;-89
2024/04/17 06:32:39;;;;;;;4.03;2.70;;;4.10;99.40;;;;;;6376681;22;20328;-89
2024/04/17 06:35:07;;;;;;;1.90;1.80;;;4.10;99.40;;;;;;6376939;22;20342;-90
2024/04/17 06:37:36;;;;;;;2.73;2.00;;;4.20;98.90;;;;;;6375806;22;20354;-89
2024/04/17 06:40:02;;;;;;;2.73;2.33;;;4.20;99.10;;;;;;6375372;22;20281;-90
2024/04/17 06:42:31;;;;;;;3.27;2.10;;;4.20;99.10;;;;;;6334745;22;20269;-90
2024/04/17 06:44:58;;;;;;;2.07;1.70;;;4.20;99.00;;;;;;6375384;22;20242;-85
2024/04/17 06:47:27;;;;;;;1.77;1.63;;;4.30;99.00;;;;;;6374502;22;20393;-86
2024/04/17 06:49:53;;;;;;;1.77;1.67;;;4.20;98.70;;;;;;6373398;22;20377;-89
2024/04/17 06:52:25;;;;;;;1.77;1.67;;;4.20;99.20;;;;;;6374289;22;20926;-88
2024/04/17 06:54:51;;;;;;;1.90;1.70;;;4.30;99.40;;;;;;6331259;22;20267;-87
2024/04/17 06:57:20;;;;;;;1.93;1.67;;;4.40;99.90;;;;;;6373495;22;20285;-87
2024/04/17 06:59:46;;;;;;;2.20;2.00;;;4.50;99.90;;;;;;6373554;22;20293;-88
2024/04/17 07:02:14;;;;;;;2.63;1.97;;;4.60;99.60;;;;;;6374957;22;20222;-88
2024/04/17 07:04:40;;;;;;;3.03;2.00;;;4.60;99.70;;;;;;6374634;22;20285;-88
2024/04/17 07:07:09;;;;;;;2.37;2.17;;;4.70;99.90;;;;;;6373922;22;20325;-89
2024/04/17 07:09:37;;;;;;;2.70;2.43;;;4.80;99.90;;;;;;6373688;22;20233;-86
2024/04/17 07:12:07;;;;;;;3.10;2.30;;;4.80;99.80;;;;;;6373035;22;20335;-86
2024/04/17 07:14:33;;;;;;;3.50;2.47;;;4.90;99.80;;;;;;6373296;22;20222;-86
2024/04/17 07:17:02;;;;;;;2.40;2.20;;;5.00;99.70;;;;;;6373043;22;20776;-88
2024/04/17 07:19:28;;;;;;;2.43;2.23;;;5.20;99.70;;;;;;6373193;22;20324;-86
2024/04/17 07:21:57;;;;;;;2.40;2.20;;;5.30;99.30;;;;;;6372764;22;20233;-86
2024/04/17 07:24:24;;;;;;;2.20;2.00;;;5.20;99.30;;;;;;6374080;22;20353;-87
2024/04/17 07:26:55;;;;;;;1.60;1.50;;;5.20;98.90;;;;;;6374285;22;20285;-86
2024/04/17 07:29:21;;;;;;;2.27;1.70;;;5.20;98.90;;;;;;6374110;22;20221;-86
2024/04/17 07:31:50;;;;;;;1.87;1.67;;;5.30;99.40;;;;;;6371720;22;20337;-86
2024/04/17 07:34:16;;;;;;;2.57;1.47;;;5.30;99.30;;;;;;6373873;22;20225;-86
2024/04/17 07:36:45;;;;;;;1.40;1.30;;;5.40;99.00;;;;;;6332093;22;20332;-89
2024/04/17 07:39:10;;;;;;;1.50;1.40;;;5.40;98.80;;;;;;6374613;22;20349;-89
2024/04/17 07:41:39;;;;;;;1.93;1.70;;;5.40;99.10;;;;;;6374493;22;20240;-85
2024/04/17 07:44:09;;;;;;;1.57;1.47;;;5.40;99.30;;;;;;6374025;22;20301;-84
2024/04/17 07:46:37;;;;;;;1.57;1.47;;;5.40;99.20;;;;;;6372631;22;20961;-85
2024/04/17 07:49:03;;;;;;;1.60;1.50;;;5.40;99.10;;;;;;6373188;22;20767;-86
2024/04/17 07:51:32;;;;;;;1.87;1.30;;;5.40;98.90;;;;;;6372873;22;20290;-88
2024/04/17 07:53:58;;;;;;;1.50;1.40;;;5.40;99.10;;;;;;6373560;22;20342;-87
2024/04/17 07:56:26;;;;;;;2.40;1.60;;;5.40;98.90;;;;;;6373523;22;20234;-86
2024/04/17 07:58:52;;;;;;;2.80;1.77;;;5.50;99.40;;;;;;6374173;22;20261;-88
2024/04/17 08:01:23;;;;;;;2.37;2.17;;;5.60;99.20;;;;;;6376145;22;20233;-89
2024/04/17 08:03:49;;;;;;;2.10;1.90;;;5.60;98.30;;;;;;6374212;22;20369;-89
2024/04/17 08:06:20;;;;;;;4.47;2.00;;;5.80;97.40;;;;;;6375112;22;20229;-87
2024/04/17 08:08:46;;;;;;;2.37;2.17;;;5.90;97.30;;;;;;6377524;22;20802;-84
2024/04/17 08:11:19;;;;;;;3.57;2.53;;;6.10;97.40;;;;;;6375924;22;20272;-92
2024/04/17 08:13:45;;;;;;;2.10;2.00;;;6.30;97.50;;;;;;6374537;22;20229;-91
2024/04/17 08:16:14;;;;;;;2.03;1.92;;;6.40;96.90;;;;;;6378414;22;20653;-92
2024/04/17 08:18:42;;;;;;;2.10;1.90;;;6.50;97.10;;;;;;6379408;22;21065;-90
2024/04/17 08:21:11;;;;;;;3.90;1.90;;;6.60;96.00;;;;;;6375668;22;20230;-90
2024/04/17 08:23:37;;;;;;;1.63;1.52;;;6.50;96.10;;;;;;6376743;22;20779;-87
2024/04/17 08:26:05;;;;;;;2.30;2.10;;;6.60;96.30;;;;;;6373360;22;20233;-87
2024/04/17 08:28:31;;;;;;;2.17;1.98;;;6.80;95.40;;;;;;6370559;22;20676;-88
2024/04/17 08:31:00;;;;;;;3.63;1.85;;;6.80;95.70;;;;;;6370866;22;20237;-87
2024/04/17 08:33:26;;;;;;;3.55;1.90;;;6.60;95.20;;;;;;6373213;22;20336;-87
2024/04/17 08:35:57;;;;;;;1.80;1.70;;;6.60;95.50;;;;;;6373137;22;20583;-89
2024/04/17 08:38:23;;;;;;;2.28;2.08;;;6.50;95.40;;;;;;6372313;22;20226;-88
2024/04/17 08:40:54;;;;;;;2.25;2.00;;;6.50;95.40;;;;;;6372832;22;20225;-88
2024/04/17 08:43:24;;;;;;;2.38;2.15;;;6.60;96.00;;;;;;6374198;22;20357;-89
2024/04/17 08:45:54;;;;;;;2.10;1.90;;;6.80;96.00;;;;;;6374557;22;20644;-88
2024/04/17 08:48:21;;;;;;;1.88;1.60;;;7.00;95.50;;;;;;6374770;22;20222;-89
2024/04/17 08:50:50;;;;;;;1.40;1.30;;;6.90;95.50;;;;;;6385642;22;20281;-91
2024/04/17 08:53:19;;;;;;;2.90;1.30;;;6.70;95.40;;;;;;6377011;22;20529;-89
2024/04/17 08:55:48;;;;;;;1.45;1.35;;;6.50;95.60;;;;;;6375327;22;20297;-93
2024/04/17 08:58:15;;;;;;;1.33;1.23;;;6.40;96.50;;;;;;6376372;22;20821;-91
2024/04/17 09:00:44;;;;;;;1.63;1.15;;;6.60;96.30;;;;;;6378471;22;20218;-88
2024/04/17 09:03:12;;;;;;;2.05;1.40;;;6.70;96.70;;;;;;6373624;22;20338;-90
2024/04/17 09:05:41;;;;;;;1.60;1.50;;;7.10;96.90;;;;;;6371711;22;20221;-90
2024/04/17 09:08:08;;;;;;;1.50;1.40;;;7.40;96.40;;;;;;6377467;22;20328;-88
2024/04/17 09:10:39;;;;;;;1.50;1.40;;;7.50;96.50;;;;;;6374903;22;20225;-89
2024/04/17 09:13:06;;;;;;;1.60;1.50;;;7.50;94.70;;;;;;6375368;22;20354;-89
2024/04/17 09:15:35;;;;;;;2.08;1.88;;;7.70;93.70;;;;;;6373356;22;20230;-93
2024/04/17 09:18:07;;;;;;;1.90;1.80;;;7.70;94.50;;;;;;6376092;22;20233;-90
2024/04/17 09:20:36;;;;;;;2.08;1.88;;;7.70;95.30;;;;;;6380235;22;20276;-92
2024/04/17 09:23:08;;;;;;;1.80;1.70;;;7.90;95.00;;;;;;6373585;22;20292;-87
2024/04/17 09:25:40;;;;;;;1.90;1.80;;;8.00;92.50;;;;;;6375147;22;20531;-88
2024/04/17 09:28:09;;;;;;;2.28;1.70;;;8.00;93.40;;;;;;6375148;22;20222;-88
2024/04/17 09:30:37;;;;;;;2.15;2.03;;;8.00;94.20;;;;;;6332544;22;20226;-86
2024/04/17 09:33:04;;;;;;;2.58;2.10;;;8.20;92.80;;;;;;6371925;22;20289;-90
2024/04/17 09:35:33;;;;;;;3.08;2.60;;;8.20;92.80;;;;;;6371316;22;20241;-88
2024/04/17 09:37:58;;;;;;;2.25;2.13;;;8.50;92.80;;;;;;6328283;22;20229;-86
2024/04/17 09:40:31;;;;;;;2.22;2.10;;;8.60;91.40;;;;;;6372454;22;20465;-86
2024/04/17 09:43:02;;;;;;;2.30;2.10;;;8.80;90.40;;;;;;6374741;22;20354;-87
2024/04/17 09:45:33;;;;;;;2.63;2.35;;;9.00;91.50;;;;;;6374676;22;20311;-89
2024/04/17 09:48:00;;;;;;;2.47;2.25;;;9.60;90.40;;;;;;6374648;22;20546;-90
2024/04/17 09:50:29;;;;;;;2.65;2.30;;;10.00;81.60;;;;;;6368245;22;20345;-90
2024/04/17 09:52:59;;;;;;;2.72;2.53;;;10.10;80.20;;;;;;6377656;22;20703;-88
2024/04/17 09:55:29;;;;;;;2.58;2.38;;;10.00;77.50;;;;;;6372996;22;20229;-89
2024/04/17 09:57:56;;;;;;;2.25;2.05;;;10.50;75.60;;;;;;6365514;22;20237;-87
2024/04/17 10:00:27;;;;;;;2.95;2.50;;;11.60;64.40;;;;;;6373934;22;20233;-87
2024/04/17 10:02:57;;;;;;;2.25;2.15;;;12.10;48.70;;;;;;6374950;22;20268;-87
2024/04/17 10:05:27;;;;;;;2.17;1.98;;;12.50;53.80;;;;;;6374693;22;20273;-88
2024/04/17 10:07:54;;;;;;;2.55;2.35;;;12.30;54.00;;;;;;6372972;22;20234;-89
2024/04/17 10:10:23;;;;;;;2.50;2.30;;;11.80;46.80;;;;;;6328932;22;21023;-88
2024/04/17 10:12:52;;;;;;;2.63;2.42;;;11.00;56.90;;;;;;6373006;22;20260;-85
2024/04/17 10:15:22;;;;;;;2.03;1.92;;;10.10;52.40;;;;;;6374537;22;20226;-87
2024/04/17 10:17:50;;;;;;;3.40;2.40;;;10.00;58.00;;;;;;6372833;22;20225;-87
2024/04/17 10:20:29;;;;;;;2.30;2.20;;;10.70;55.70;;;;;;6374264;22;20268;-88
2024/04/17 10:23:06;;;;;;;2.40;2.20;;;11.20;50.70;;;;;;6374803;22;20280;-87
2024/04/17 10:25:32;;;;;;;2.40;2.20;;;10.40;53.00;;;;;;6376779;22;20273;-89
2024/04/17 10:28:05;;;;;;;4.53;2.50;;;10.10;63.00;;;;;;6375819;22;20243;-90
2024/04/17 10:30:35;;;;;;;2.45;2.25;;;9.80;71.10;;;;;;6375657;22;20340;-87
2024/04/17 10:33:18;;;;;;;2.75;2.50;;;10.10;73.00;;;;;;6373372;22;20284;-89
2024/04/17 10:35:46;;;;;;;3.38;2.35;;;10.90;74.00;;;;;;6372508;22;20229;-86
2024/04/17 10:40:50;;;;;;;3.00;2.80;;;12.60;46.10;;;;;;6383692;21;20290;-92
2024/04/17 10:43:16;;;;;;;2.90;2.70;;;13.10;43.00;;;;;;6383913;22;20730;-91
2024/04/17 10:45:47;;;;;;;2.70;2.50;;;13.30;38.00;;;;;;6380290;22;20340;-91
2024/04/17 10:48:19;;;;;;;2.70;2.50;;;13.50;36.10;;;;;;6368524;22;20291;-90
2024/04/17 10:50:47;;;;;;;2.50;2.30;;;13.20;28.70;;;;;;6337388;22;20264;-90
2024/04/17 10:53:14;;;;;;;2.75;2.53;;;12.40;31.50;;;;;;6372929;22;20334;-88
2024/04/17 10:55:42;;;;;;;2.88;2.67;;;11.90;34.10;;;;;;6374634;22;20237;-86
2024/04/17 10:58:11;;;;;;;3.03;2.70;;;11.70;52.70;;;;;;6382897;22;20281;-89
2024/04/17 11:00:40;;;;;;;3.03;2.72;;;11.70;37.60;;;;;;6366243;22;20311;-92
2024/04/17 11:03:06;;;;;;;2.47;2.28;;;11.60;33.20;;;;;;6374601;22;20320;-92
2024/04/17 11:05:37;;;;;;;2.50;2.30;;;11.20;33.10;;;;;;6375041;22;20711;-90
2024/04/17 11:08:04;;;;;;;3.40;2.80;;;11.00;36.80;;;;;;6373661;22;20273;-89
2024/04/17 11:10:32;;;;;;;2.75;2.53;;;10.50;37.40;;;;;;6374527;22;20846;-86
2024/04/17 11:12:58;;;;;;;2.60;2.40;;;10.20;46.90;;;;;;6375637;22;20713;-88
2024/04/17 11:15:27;;;;;;;2.90;2.70;;;10.20;45.20;;;;;;6375974;22;20306;-87
2024/04/17 11:17:52;;;;;;;3.80;2.60;;;10.10;43.80;;;;;;6373682;22;21053;-89
2024/04/17 11:20:21;;;;;;;3.08;2.78;;;10.10;46.00;;;;;;6374208;22;20321;-88
2024/04/17 11:22:50;;;;;;;2.85;2.55;;;9.90;41.60;;;;;;6373817;22;20277;-87
2024/04/17 11:25:18;;;;;;;4.47;2.30;;;9.80;44.00;;;;;;6375023;22;20221;-86
2024/04/17 11:27:44;;;;;;;2.90;2.50;;;9.50;52.40;;;;;;6374120;22;20361;-85
2024/04/17 11:30:21;;;;;;;3.67;2.55;;;9.20;58.30;;;;;;6374346;22;20692;-87
2024/04/17 11:32:47;;;;;;;4.28;3.13;;;8.80;61.40;;;;;;6372332;22;20358;-90
2024/04/17 11:35:17;;;;;;;3.70;2.80;;;8.60;73.50;;;;;;6378081;22;20264;-87
2024/04/17 11:37:45;;;;;;;4.07;2.97;;;8.50;80.30;;;;;;6372371;22;20293;-89
2024/04/17 11:40:17;;;;;;;3.75;2.90;;;8.50;84.50;;;;;;6331795;22;20388;-89
2024/04/17 11:42:43;;;;;;;3.30;3.00;;;8.70;90.40;;;;;;6374265;22;20783;-90
2024/04/17 11:45:13;;;;;;;2.97;2.75;;;9.30;80.20;;;;;;6330669;22;20226;-88
2024/04/17 11:47:39;;;;;;;3.15;2.85;;;9.60;76.00;;;;;;6374385;22;20233;-88
2024/04/17 11:50:08;;;;;;;3.42;2.83;;;9.80;74.70;;;;;;6372612;22;20279;-89
2024/04/17 11:52:34;;;;;;;4.35;2.58;;;10.10;73.90;;;;;;6374083;22;20270;-91
2024/04/17 11:55:03;;;;;;;2.60;2.40;;;10.40;68.10;;;;;;6373955;22;20225;-89
2024/04/17 11:57:32;;;;;;;2.72;2.53;;;10.30;61.50;;;;;;6372985;22;20233;-89
2024/04/17 12:00:01;;;;;;;2.60;2.40;;;10.10;59.80;;;;;;6328427;22;20225;-89
2024/04/17 12:02:26;;;;;;;2.50;2.25;;;10.40;63.60;;;;;;6320843;22;20544;-85
2024/04/17 12:04:55;;;;;;;3.38;2.08;;;10.60;56.60;;;;;;6324149;22;20269;-85
2024/04/17 12:07:21;;;;;;;3.38;2.33;;;10.70;52.00;;;;;;6323294;22;20681;-88
2024/04/17 12:09:50;;;;;;;2.13;2.03;;;11.10;47.70;;;;;;6325612;22;20249;-88
2024/04/17 12:12:16;;;;;;;2.10;2.00;;;10.90;43.50;;;;;;6322217;22;21044;-87
2024/04/17 12:14:47;;;;;;;2.30;2.00;;;10.80;40.00;;;;;;6317606;22;20223;-86
2024/04/17 12:17:13;;;;;;;2.50;2.30;;;10.60;41.30;;;;;;6324559;22;20715;-83
2024/04/17 12:19:41;;;;;;;2.95;2.63;;;10.10;46.90;;;;;;6325506;22;20275;-87
2024/04/17 12:22:07;;;;;;;2.80;2.60;;;9.70;52.50;;;;;;6325601;22;20665;-85
2024/04/17 12:27:17;;;;;;;2.65;2.40;;;9.40;62.90;;;;;;6326511;22;20781;-88
2024/04/17 12:29:48;;;;;;;3.22;2.92;;;9.60;58.00;;;;;;6325312;22;20351;-85
2024/04/17 12:32:17;;;;;;;4.28;2.58;;;9.80;58.30;;;;;;6324747;22;20282;-88
2024/04/17 12:34:45;;;;;;;2.60;2.40;;;10.40;49.30;;;;;;6326597;22;20298;-88
2024/04/17 12:37:15;;;;;;;2.85;2.20;;;10.60;47.30;;;;;;6323286;22;20269;-89
2024/04/17 12:39:44;;;;;;;3.35;2.47;;;11.30;44.40;;;;;;6324485;22;20227;-88
2024/04/17 12:42:15;;;;;;;2.40;2.20;;;11.30;41.20;;;;;;6324237;22;20269;-89
2024/04/17 12:44:43;;;;;;;2.63;2.42;;;10.90;41.40;;;;;;6326189;22;20226;-86
2024/04/17 12:47:12;;;;;;;2.90;2.55;;;10.50;47.30;;;;;;6326395;22;20230;-87
2024/04/17 12:49:40;;;;;;;5.10;3.50;;;9.50;58.90;;;;;;6326106;22;20294;-90
2024/04/17 12:52:09;;;;;;;3.63;3.33;;;8.80;67.30;;;;;;6325368;22;20238;-86
2024/04/17 12:54:37;;;;;;;6.82;3.22;;;8.00;80.00;;;;;;6326498;22;20238;-87
2024/04/17 12:57:07;;;;;;;6.82;3.92;;;7.60;88.00;;;;;;6325976;22;20294;-87
2024/04/17 12:59:36;;;;;;;4.47;3.47;;;7.20;90.30;;;;;;6324359;22;20226;-85
2024/04/17 13:02:02;;;;;;;3.53;3.22;;;7.10;91.80;;;;;;6335709;22;20276;-87
2024/04/17 13:04:33;;;;;;;3.95;3.10;;;6.90;93.10;;;;;;6375953;22;20226;-87